sensor_id;sensor_type;location;lat;lon;timestamp;temperature;humidity
41922;DHT22;27609;51.002;5.354;2024-01-27T00:00:08;2.20;99.90
41922;DHT22;27609;51.002;5.354;2024-01-27T00:02:34;2.10;99.90
41922;DHT22;27609;51.002;5.354;2024-01-27T00:05:00;2.10;99.90
41922;DHT22;27609;51.002;5.354;2024-01-27T00:07:25;3.40;99.90
41922;DHT22;27609;51.002;5.354;2024-01-27T00:09:53;2.40;99.90
41922;DHT22;27609;51.002;5.354;2024-01-27T00:12:19;2.30;99.90
41922;DHT22;27609;51.002;5.354;2024-01-27T00:14:45;2.10;99.90
41922;DHT22;27609;51.002;5.354;2024-01-27T00:17:11;2.00;99.90
41922;DHT22;27609;51.002;5.354;2024-01-27T00:19:37;2.10;99.90
41922;DHT22;27609;51.002;5.354;2024-01-27T00:22:02;2.10;99.90
41922;DHT22;27609;51.002;5.354;2024-01-27T00:24:28;2.10;99.90
41922;DHT22;27609;51.002;5.354;2024-01-27T00:26:54;2.00;99.90
41922;DHT22;27609;51.002;5.354;2024-01-27T00:29:20;2.70;99.90
41922;DHT22;27609;51.002;5.354;2024-01-27T00:31:46;3.20;99.90
41922;DHT22;27609;51.002;5.354;2024-01-27T00:34:11;2.80;99.90
41922;DHT22;27609;51.002;5.354;2024-01-27T00:36:37;2.00;99.90
41922;DHT22;27609;51.002;5.354;2024-01-27T00:39:04;2.20;99.90
41922;DHT22;27609;51.002;5.354;2024-01-27T00:41:30;2.00;99.90
41922;DHT22;27609;51.002;5.354;2024-01-27T00:43:56;2.00;99.90
41922;DHT22;27609;51.002;5.354;2024-01-27T00:46:21;2.00;99.90
41922;DHT22;27609;51.002;5.354;2024-01-27T00:48:47;2.00;99.90
41922;DHT22;27609;51.002;5.354;2024-01-27T00:51:13;2.00;99.90
41922;DHT22;27609;51.002;5.354;2024-01-27T00:53:39;1.90;99.90
41922;DHT22;27609;51.002;5.354;2024-01-27T00:56:06;1.90;99.90
41922;DHT22;27609;51.002;5.354;2024-01-27T00:58:32;2.10;99.90
41922;DHT22;27609;51.002;5.354;2024-01-27T01:00:59;2.90;99.90
41922;DHT22;27609;51.002;5.354;2024-01-27T01:03:25;1.80;99.90
41922;DHT22;27609;51.002;5.354;2024-01-27T01:05:50;1.90;99.90
41922;DHT22;27609;51.002;5.354;2024-01-27T01:08:16;1.90;99.90
41922;DHT22;27609;51.002;5.354;2024-01-27T01:10:42;1.90;99.90
41922;DHT22;27609;51.002;5.354;2024-01-27T01:13:08;1.80;99.90
41922;DHT22;27609;51.002;5.354;2024-01-27T01:15:33;1.80;99.90
41922;DHT22;27609;51.002;5.354;2024-01-27T01:17:59;1.70;99.90
41922;DHT22;27609;51.002;5.354;2024-01-27T01:20:25;1.50;99.90
41922;DHT22;27609;51.002;5.354;2024-01-27T01:22:52;1.40;99.90
41922;DHT22;27609;51.002;5.354;2024-01-27T01:25:18;1.70;99.90
41922;DHT22;27609;51.002;5.354;2024-01-27T01:27:45;2.20;99.90
41922;DHT22;27609;51.002;5.354;2024-01-27T01:30:11;2.00;99.90
41922;DHT22;27609;51.002;5.354;2024-01-27T01:32:37;1.40;99.90
41922;DHT22;27609;51.002;5.354;2024-01-27T01:35:03;1.50;99.90
41922;DHT22;27609;51.002;5.354;2024-01-27T01:37:29;1.50;99.90
41922;DHT22;27609;51.002;5.354;2024-01-27T01:39:55;1.50;99.90
41922;DHT22;27609;51.002;5.354;2024-01-27T01:42:21;2.70;99.90
41922;DHT22;27609;51.002;5.354;2024-01-27T01:44:50;1.50;99.90
41922;DHT22;27609;51.002;5.354;2024-01-27T01:47:17;2.80;99.90
41922;DHT22;27609;51.002;5.354;2024-01-27T01:49:43;1.40;99.90
41922;DHT22;27609;51.002;5.354;2024-01-27T01:52:09;1.60;99.90
41922;DHT22;27609;51.002;5.354;2024-01-27T01:54:35;2.40;99.90
41922;DHT22;27609;51.002;5.354;2024-01-27T01:57:01;1.50;99.90
41922;DHT22;27609;51.002;5.354;2024-01-27T01:59:27;1.50;99.90
41922;DHT22;27609;51.002;5.354;2024-01-27T02:01:53;1.60;99.90
41922;DHT22;27609;51.002;5.354;2024-01-27T02:04:18;2.60;99.90
41922;DHT22;27609;51.002;5.354;2024-01-27T02:06:44;1.50;99.90
41922;DHT22;27609;51.002;5.354;2024-01-27T02:09:10;2.10;99.90
41922;DHT22;27609;51.002;5.354;2024-01-27T02:11:36;1.50;99.90
41922;DHT22;27609;51.002;5.354;2024-01-27T02:14:02;1.50;99.90
41922;DHT22;27609;51.002;5.354;2024-01-27T02:16:28;1.50;99.90
41922;DHT22;27609;51.002;5.354;2024-01-27T02:18:53;1.50;99.90
41922;DHT22;27609;51.002;5.354;2024-01-27T02:21:19;1.40;99.90
41922;DHT22;27609;51.002;5.354;2024-01-27T02:23:45;2.10;99.90
41922;DHT22;27609;51.002;5.354;2024-01-27T02:26:11;1.60;99.90
41922;DHT22;27609;51.002;5.354;2024-01-27T02:28:37;1.50;99.90
41922;DHT22;27609;51.002;5.354;2024-01-27T02:31:02;2.70;99.90
41922;DHT22;27609;51.002;5.354;2024-01-27T02:33:29;1.30;99.90
41922;DHT22;27609;51.002;5.354;2024-01-27T02:35:54;1.50;99.90
41922;DHT22;27609;51.002;5.354;2024-01-27T02:38:20;1.20;99.90
41922;DHT22;27609;51.002;5.354;2024-01-27T02:40:46;1.30;99.90
41922;DHT22;27609;51.002;5.354;2024-01-27T02:43:12;1.20;99.90
41922;DHT22;27609;51.002;5.354;2024-01-27T02:45:37;1.20;99.90
41922;DHT22;27609;51.002;5.354;2024-01-27T02:48:03;1.20;99.90
41922;DHT22;27609;51.002;5.354;2024-01-27T02:50:29;1.30;99.90
41922;DHT22;27609;51.002;5.354;2024-01-27T02:52:55;1.30;99.90
41922;DHT22;27609;51.002;5.354;2024-01-27T02:55:21;2.70;99.90
41922;DHT22;27609;51.002;5.354;2024-01-27T02:57:47;2.10;99.90
41922;DHT22;27609;51.002;5.354;2024-01-27T03:00:12;1.80;99.90
41922;DHT22;27609;51.002;5.354;2024-01-27T03:02:38;1.00;99.90
41922;DHT22;27609;51.002;5.354;2024-01-27T03:05:05;1.60;99.90
41922;DHT22;27609;51.002;5.354;2024-01-27T03:07:31;0.80;99.90
41922;DHT22;27609;51.002;5.354;2024-01-27T03:09:56;1.20;99.90
41922;DHT22;27609;51.002;5.354;2024-01-27T03:12:22;0.80;99.90
41922;DHT22;27609;51.002;5.354;2024-01-27T03:14:50;-0.20;99.90
41922;DHT22;27609;51.002;5.354;2024-01-27T03:17:16;0.90;99.90
41922;DHT22;27609;51.002;5.354;2024-01-27T03:19:42;0.80;99.90
41922;DHT22;27609;51.002;5.354;2024-01-27T03:22:07;0.80;99.90
41922;DHT22;27609;51.002;5.354;2024-01-27T03:24:33;1.80;99.90
41922;DHT22;27609;51.002;5.354;2024-01-27T03:26:59;1.50;99.90
41922;DHT22;27609;51.002;5.354;2024-01-27T03:29:25;0.50;99.90
41922;DHT22;27609;51.002;5.354;2024-01-27T03:31:50;1.60;99.90
41922;DHT22;27609;51.002;5.354;2024-01-27T03:34:16;0.70;99.90
41922;DHT22;27609;51.002;5.354;2024-01-27T03:36:43;1.70;99.90
41922;DHT22;27609;51.002;5.354;2024-01-27T03:39:12;1.50;99.90
41922;DHT22;27609;51.002;5.354;2024-01-27T03:41:38;0.80;99.90
41922;DHT22;27609;51.002;5.354;2024-01-27T03:44:04;0.80;99.90
41922;DHT22;27609;51.002;5.354;2024-01-27T03:46:30;0.70;99.90
41922;DHT22;27609;51.002;5.354;2024-01-27T03:48:55;1.40;99.90
41922;DHT22;27609;51.002;5.354;2024-01-27T03:51:21;1.70;99.90
41922;DHT22;27609;51.002;5.354;2024-01-27T03:53:48;1.70;99.90
41922;DHT22;27609;51.002;5.354;2024-01-27T03:56:14;1.60;99.90
41922;DHT22;27609;51.002;5.354;2024-01-27T03:58:40;2.30;99.90
41922;DHT22;27609;51.002;5.354;2024-01-27T04:01:05;1.00;99.90
41922;DHT22;27609;51.002;5.354;2024-01-27T04:03:31;0.90;99.90
41922;DHT22;27609;51.002;5.354;2024-01-27T04:05:57;0.80;99.90
41922;DHT22;27609;51.002;5.354;2024-01-27T04:08:23;0.70;99.90
41922;DHT22;27609;51.002;5.354;2024-01-27T04:10:49;0.50;99.90
41922;DHT22;27609;51.002;5.354;2024-01-27T04:13:15;1.10;99.90
41922;DHT22;27609;51.002;5.354;2024-01-27T04:15:41;1.60;99.90
41922;DHT22;27609;51.002;5.354;2024-01-27T04:18:07;0.30;99.90
41922;DHT22;27609;51.002;5.354;2024-01-27T04:20:37;1.20;99.90
41922;DHT22;27609;51.002;5.354;2024-01-27T04:23:03;1.50;99.90
41922;DHT22;27609;51.002;5.354;2024-01-27T04:25:29;0.40;99.90
41922;DHT22;27609;51.002;5.354;2024-01-27T04:27:55;1.20;99.90
41922;DHT22;27609;51.002;5.354;2024-01-27T04:30:21;0.50;99.90
41922;DHT22;27609;51.002;5.354;2024-01-27T04:32:46;2.00;99.90
41922;DHT22;27609;51.002;5.354;2024-01-27T04:35:14;1.60;99.90
41922;DHT22;27609;51.002;5.354;2024-01-27T04:37:40;0.60;99.90
41922;DHT22;27609;51.002;5.354;2024-01-27T04:40:07;0.90;99.90
41922;DHT22;27609;51.002;5.354;2024-01-27T04:42:38;0.70;99.90
41922;DHT22;27609;51.002;5.354;2024-01-27T04:45:04;0.70;99.90
41922;DHT22;27609;51.002;5.354;2024-01-27T04:47:31;0.70;99.90
41922;DHT22;27609;51.002;5.354;2024-01-27T04:49:56;1.90;99.90
41922;DHT22;27609;51.002;5.354;2024-01-27T04:52:23;0.70;99.90
41922;DHT22;27609;51.002;5.354;2024-01-27T04:54:48;1.60;99.90
41922;DHT22;27609;51.002;5.354;2024-01-27T04:57:14;1.20;99.90
41922;DHT22;27609;51.002;5.354;2024-01-27T04:59:40;0.50;99.90
41922;DHT22;27609;51.002;5.354;2024-01-27T05:02:06;0.50;99.90
41922;DHT22;27609;51.002;5.354;2024-01-27T05:04:32;0.30;99.90
41922;DHT22;27609;51.002;5.354;2024-01-27T05:06:58;0.20;99.90
41922;DHT22;27609;51.002;5.354;2024-01-27T05:09:24;1.20;99.90
41922;DHT22;27609;51.002;5.354;2024-01-27T05:11:50;1.30;99.90
41922;DHT22;27609;51.002;5.354;2024-01-27T05:14:18;1.30;99.90
41922;DHT22;27609;51.002;5.354;2024-01-27T05:16:44;0.60;99.90
41922;DHT22;27609;51.002;5.354;2024-01-27T05:19:10;0.60;99.90
41922;DHT22;27609;51.002;5.354;2024-01-27T05:21:37;0.70;99.90
41922;DHT22;27609;51.002;5.354;2024-01-27T05:24:03;1.50;99.90
41922;DHT22;27609;51.002;5.354;2024-01-27T05:26:29;0.70;99.90
41922;DHT22;27609;51.002;5.354;2024-01-27T05:28:55;0.60;99.90
41922;DHT22;27609;51.002;5.354;2024-01-27T05:31:21;0.50;99.90
41922;DHT22;27609;51.002;5.354;2024-01-27T05:33:46;1.00;99.90
41922;DHT22;27609;51.002;5.354;2024-01-27T05:36:12;0.30;99.90
41922;DHT22;27609;51.002;5.354;2024-01-27T05:38:38;1.20;99.90
41922;DHT22;27609;51.002;5.354;2024-01-27T05:41:04;0.40;99.90
41922;DHT22;27609;51.002;5.354;2024-01-27T05:43:30;1.20;99.90
41922;DHT22;27609;51.002;5.354;2024-01-27T05:45:55;0.40;99.90
41922;DHT22;27609;51.002;5.354;2024-01-27T05:48:21;0.20;99.90
41922;DHT22;27609;51.002;5.354;2024-01-27T05:50:57;0.10;99.90
41922;DHT22;27609;51.002;5.354;2024-01-27T05:53:23;1.30;99.90
41922;DHT22;27609;51.002;5.354;2024-01-27T05:55:50;0.90;99.90
41922;DHT22;27609;51.002;5.354;2024-01-27T05:58:15;0.10;99.90
41922;DHT22;27609;51.002;5.354;2024-01-27T06:00:44;0.40;99.90
41922;DHT22;27609;51.002;5.354;2024-01-27T06:03:10;0.20;99.90
41922;DHT22;27609;51.002;5.354;2024-01-27T06:05:36;1.20;99.90
41922;DHT22;27609;51.002;5.354;2024-01-27T06:08:03;0.30;99.90
41922;DHT22;27609;51.002;5.354;2024-01-27T06:10:28;0.40;99.90
41922;DHT22;27609;51.002;5.354;2024-01-27T06:12:56;0.50;99.90
41922;DHT22;27609;51.002;5.354;2024-01-27T06:15:21;1.80;99.90
41922;DHT22;27609;51.002;5.354;2024-01-27T06:17:47;0.60;99.90
41922;DHT22;27609;51.002;5.354;2024-01-27T06:20:13;0.90;99.90
41922;DHT22;27609;51.002;5.354;2024-01-27T06:22:39;0.60;99.90
41922;DHT22;27609;51.002;5.354;2024-01-27T06:25:05;1.30;99.90
41922;DHT22;27609;51.002;5.354;2024-01-27T06:27:30;0.20;99.90
41922;DHT22;27609;51.002;5.354;2024-01-27T06:29:56;0.80;99.90
41922;DHT22;27609;51.002;5.354;2024-01-27T06:32:22;0.90;99.90
41922;DHT22;27609;51.002;5.354;2024-01-27T06:34:48;-0.20;99.90
41922;DHT22;27609;51.002;5.354;2024-01-27T06:37:13;0.50;99.90
41922;DHT22;27609;51.002;5.354;2024-01-27T06:39:39;1.10;99.90
41922;DHT22;27609;51.002;5.354;2024-01-27T06:42:05;0.60;99.90
41922;DHT22;27609;51.002;5.354;2024-01-27T06:44:31;-0.10;99.90
41922;DHT22;27609;51.002;5.354;2024-01-27T06:46:56;-1.20;99.90
41922;DHT22;27609;51.002;5.354;2024-01-27T06:49:22;0.00;99.90
41922;DHT22;27609;51.002;5.354;2024-01-27T06:51:48;0.90;99.90
41922;DHT22;27609;51.002;5.354;2024-01-27T06:54:14;0.40;99.90
41922;DHT22;27609;51.002;5.354;2024-01-27T06:56:39;0.90;99.90
41922;DHT22;27609;51.002;5.354;2024-01-27T06:59:05;0.70;99.90
41922;DHT22;27609;51.002;5.354;2024-01-27T07:01:31;0.20;99.90
41922;DHT22;27609;51.002;5.354;2024-01-27T07:03:57;1.00;99.90
41922;DHT22;27609;51.002;5.354;2024-01-27T07:06:22;0.40;99.90
41922;DHT22;27609;51.002;5.354;2024-01-27T07:08:48;1.10;99.90
41922;DHT22;27609;51.002;5.354;2024-01-27T07:11:14;0.90;99.90
41922;DHT22;27609;51.002;5.354;2024-01-27T07:13:41;0.70;99.90
41922;DHT22;27609;51.002;5.354;2024-01-27T07:16:07;1.90;99.90
41922;DHT22;27609;51.002;5.354;2024-01-27T07:18:32;1.00;99.90
41922;DHT22;27609;51.002;5.354;2024-01-27T07:21:01;0.60;99.90
41922;DHT22;27609;51.002;5.354;2024-01-27T07:23:26;0.60;99.90
41922;DHT22;27609;51.002;5.354;2024-01-27T07:25:52;0.80;99.90
41922;DHT22;27609;51.002;5.354;2024-01-27T07:28:18;0.90;99.90
41922;DHT22;27609;51.002;5.354;2024-01-27T07:30:44;1.50;99.90
41922;DHT22;27609;51.002;5.354;2024-01-27T07:33:10;0.70;99.90
41922;DHT22;27609;51.002;5.354;2024-01-27T07:35:36;0.70;99.90
41922;DHT22;27609;51.002;5.354;2024-01-27T07:38:01;1.50;99.90
41922;DHT22;27609;51.002;5.354;2024-01-27T07:40:27;0.80;99.90
41922;DHT22;27609;51.002;5.354;2024-01-27T07:42:53;1.40;99.90
41922;DHT22;27609;51.002;5.354;2024-01-27T07:45:19;2.10;99.90
41922;DHT22;27609;51.002;5.354;2024-01-27T07:47:45;1.00;99.90
41922;DHT22;27609;51.002;5.354;2024-01-27T07:50:11;1.20;99.90
41922;DHT22;27609;51.002;5.354;2024-01-27T07:52:37;1.50;99.90
41922;DHT22;27609;51.002;5.354;2024-01-27T07:55:03;2.20;99.90
41922;DHT22;27609;51.002;5.354;2024-01-27T07:57:28;2.00;99.90
41922;DHT22;27609;51.002;5.354;2024-01-27T07:59:54;2.40;99.90
41922;DHT22;27609;51.002;5.354;2024-01-27T08:02:20;2.40;99.90
41922;DHT22;27609;51.002;5.354;2024-01-27T08:04:45;2.50;99.90
41922;DHT22;27609;51.002;5.354;2024-01-27T08:07:11;2.50;99.90
41922;DHT22;27609;51.002;5.354;2024-01-27T08:09:40;3.50;99.90
41922;DHT22;27609;51.002;5.354;2024-01-27T08:12:06;2.80;99.90
41922;DHT22;27609;51.002;5.354;2024-01-27T08:14:32;2.40;99.90
41922;DHT22;27609;51.002;5.354;2024-01-27T08:16:59;2.50;99.90
41922;DHT22;27609;51.002;5.354;2024-01-27T08:19:25;2.50;99.90
41922;DHT22;27609;51.002;5.354;2024-01-27T08:21:50;2.50;99.90
41922;DHT22;27609;51.002;5.354;2024-01-27T08:24:16;2.40;99.90
41922;DHT22;27609;51.002;5.354;2024-01-27T08:26:42;2.40;99.90
41922;DHT22;27609;51.002;5.354;2024-01-27T08:29:09;2.60;99.90
41922;DHT22;27609;51.002;5.354;2024-01-27T08:31:34;3.40;99.90
41922;DHT22;27609;51.002;5.354;2024-01-27T08:34:00;5.20;99.90
41922;DHT22;27609;51.002;5.354;2024-01-27T08:36:26;6.30;99.90
41922;DHT22;27609;51.002;5.354;2024-01-27T08:38:52;6.40;99.90
41922;DHT22;27609;51.002;5.354;2024-01-27T08:41:17;6.60;99.90
41922;DHT22;27609;51.002;5.354;2024-01-27T08:43:43;6.20;99.90
41922;DHT22;27609;51.002;5.354;2024-01-27T08:46:09;6.60;99.90
41922;DHT22;27609;51.002;5.354;2024-01-27T08:48:38;6.60;99.90
41922;DHT22;27609;51.002;5.354;2024-01-27T08:51:04;6.40;99.90
41922;DHT22;27609;51.002;5.354;2024-01-27T08:53:29;6.50;99.90
41922;DHT22;27609;51.002;5.354;2024-01-27T08:55:55;7.20;99.90
41922;DHT22;27609;51.002;5.354;2024-01-27T08:58:22;7.40;99.90
41922;DHT22;27609;51.002;5.354;2024-01-27T09:00:48;7.90;99.90
41922;DHT22;27609;51.002;5.354;2024-01-27T09:03:14;8.20;99.90
41922;DHT22;27609;51.002;5.354;2024-01-27T09:05:40;8.20;99.90
41922;DHT22;27609;51.002;5.354;2024-01-27T09:08:09;8.90;99.90
41922;DHT22;27609;51.002;5.354;2024-01-27T09:10:34;9.70;99.90
41922;DHT22;27609;51.002;5.354;2024-01-27T09:13:00;9.20;99.90
41922;DHT22;27609;51.002;5.354;2024-01-27T09:15:26;9.20;99.90
41922;DHT22;27609;51.002;5.354;2024-01-27T09:17:51;10.30;99.90
41922;DHT22;27609;51.002;5.354;2024-01-27T09:20:17;9.70;99.90
41922;DHT22;27609;51.002;5.354;2024-01-27T09:22:43;9.30;99.90
41922;DHT22;27609;51.002;5.354;2024-01-27T09:25:10;9.10;99.90
41922;DHT22;27609;51.002;5.354;2024-01-27T09:27:36;9.60;99.90
41922;DHT22;27609;51.002;5.354;2024-01-27T09:30:02;9.70;99.90
41922;DHT22;27609;51.002;5.354;2024-01-27T09:32:28;9.60;99.90
41922;DHT22;27609;51.002;5.354;2024-01-27T09:34:54;10.20;99.90
41922;DHT22;27609;51.002;5.354;2024-01-27T09:37:20;9.30;99.90
41922;DHT22;27609;51.002;5.354;2024-01-27T09:39:46;9.60;99.90
41922;DHT22;27609;51.002;5.354;2024-01-27T09:42:13;9.90;99.90
41922;DHT22;27609;51.002;5.354;2024-01-27T09:44:47;10.00;99.90
41922;DHT22;27609;51.002;5.354;2024-01-27T09:47:14;9.50;99.90
41922;DHT22;27609;51.002;5.354;2024-01-27T09:49:40;9.40;99.90
41922;DHT22;27609;51.002;5.354;2024-01-27T09:52:08;10.40;99.90
41922;DHT22;27609;51.002;5.354;2024-01-27T09:54:35;10.30;99.90
41922;DHT22;27609;51.002;5.354;2024-01-27T09:57:01;9.90;99.90
41922;DHT22;27609;51.002;5.354;2024-01-27T09:59:28;10.80;99.90
41922;DHT22;27609;51.002;5.354;2024-01-27T10:01:54;10.90;99.90
41922;DHT22;27609;51.002;5.354;2024-01-27T10:04:22;10.00;99.90
41922;DHT22;27609;51.002;5.354;2024-01-27T10:06:49;10.80;99.90
41922;DHT22;27609;51.002;5.354;2024-01-27T10:09:16;10.60;99.90
41922;DHT22;27609;51.002;5.354;2024-01-27T10:11:45;11.00;99.90
41922;DHT22;27609;51.002;5.354;2024-01-27T10:14:12;10.60;99.90
41922;DHT22;27609;51.002;5.354;2024-01-27T10:16:42;11.50;99.90
41922;DHT22;27609;51.002;5.354;2024-01-27T10:19:16;12.40;99.90
41922;DHT22;27609;51.002;5.354;2024-01-27T10:21:44;13.00;99.90
41922;DHT22;27609;51.002;5.354;2024-01-27T10:24:09;12.70;99.90
41922;DHT22;27609;51.002;5.354;2024-01-27T10:26:35;13.90;99.90
41922;DHT22;27609;51.002;5.354;2024-01-27T10:29:01;14.10;99.90
41922;DHT22;27609;51.002;5.354;2024-01-27T10:31:34;13.30;99.90
41922;DHT22;27609;51.002;5.354;2024-01-27T10:34:00;14.60;99.90
41922;DHT22;27609;51.002;5.354;2024-01-27T10:36:43;15.20;99.90
41922;DHT22;27609;51.002;5.354;2024-01-27T10:39:16;15.60;98.80
41922;DHT22;27609;51.002;5.354;2024-01-27T10:41:45;16.30;97.80
41922;DHT22;27609;51.002;5.354;2024-01-27T10:44:14;17.20;95.30
41922;DHT22;27609;51.002;5.354;2024-01-27T10:46:43;16.50;96.40
41922;DHT22;27609;51.002;5.354;2024-01-27T10:49:11;17.20;94.80
41922;DHT22;27609;51.002;5.354;2024-01-27T10:51:43;17.20;93.70
41922;DHT22;27609;51.002;5.354;2024-01-27T10:54:14;17.40;93.80
41922;DHT22;27609;51.002;5.354;2024-01-27T10:56:40;17.40;93.80
41922;DHT22;27609;51.002;5.354;2024-01-27T10:59:09;17.60;92.90
41922;DHT22;27609;51.002;5.354;2024-01-27T11:01:36;17.50;92.50
41922;DHT22;27609;51.002;5.354;2024-01-27T11:04:03;17.80;92.70
41922;DHT22;27609;51.002;5.354;2024-01-27T11:06:32;17.40;92.70
41922;DHT22;27609;51.002;5.354;2024-01-27T11:09:01;18.00;90.90
41922;DHT22;27609;51.002;5.354;2024-01-27T11:11:29;16.70;92.00
41922;DHT22;27609;51.002;5.354;2024-01-27T11:13:55;16.70;93.00
41922;DHT22;27609;51.002;5.354;2024-01-27T11:16:23;16.10;94.00
41922;DHT22;27609;51.002;5.354;2024-01-27T11:18:49;16.30;93.30
41922;DHT22;27609;51.002;5.354;2024-01-27T11:21:16;16.30;93.80
41922;DHT22;27609;51.002;5.354;2024-01-27T11:23:42;17.70;91.30
41922;DHT22;27609;51.002;5.354;2024-01-27T11:26:09;18.40;91.30
41922;DHT22;27609;51.002;5.354;2024-01-27T11:28:36;18.30;91.30
41922;DHT22;27609;51.002;5.354;2024-01-27T11:31:06;19.40;89.50
41922;DHT22;27609;51.002;5.354;2024-01-27T11:33:32;20.50;85.00
41922;DHT22;27609;51.002;5.354;2024-01-27T11:36:02;19.10;85.60
41922;DHT22;27609;51.002;5.354;2024-01-27T11:38:29;18.90;87.90
41922;DHT22;27609;51.002;5.354;2024-01-27T11:40:55;20.20;82.80
41922;DHT22;27609;51.002;5.354;2024-01-27T11:43:21;20.90;80.80
41922;DHT22;27609;51.002;5.354;2024-01-27T11:46:00;21.20;78.20
41922;DHT22;27609;51.002;5.354;2024-01-27T11:48:26;19.20;80.10
41922;DHT22;27609;51.002;5.354;2024-01-27T11:51:07;18.70;82.20
41922;DHT22;27609;51.002;5.354;2024-01-27T11:53:36;19.30;80.20
41922;DHT22;27609;51.002;5.354;2024-01-27T11:56:02;18.30;82.50
41922;DHT22;27609;51.002;5.354;2024-01-27T11:58:29;18.40;82.60
41922;DHT22;27609;51.002;5.354;2024-01-27T12:00:58;18.10;82.00
41922;DHT22;27609;51.002;5.354;2024-01-27T12:03:25;18.30;83.70
41922;DHT22;27609;51.002;5.354;2024-01-27T12:05:51;18.10;82.60
41922;DHT22;27609;51.002;5.354;2024-01-27T12:08:19;18.00;81.50
41922;DHT22;27609;51.002;5.354;2024-01-27T12:10:45;17.70;81.40
41922;DHT22;27609;51.002;5.354;2024-01-27T12:13:11;18.00;80.80
41922;DHT22;27609;51.002;5.354;2024-01-27T12:15:37;18.30;81.40
41922;DHT22;27609;51.002;5.354;2024-01-27T12:18:04;18.40;81.40
41922;DHT22;27609;51.002;5.354;2024-01-27T12:20:30;18.80;78.50
41922;DHT22;27609;51.002;5.354;2024-01-27T12:23:04;17.70;81.00
41922;DHT22;27609;51.002;5.354;2024-01-27T12:25:30;17.70;82.30
41922;DHT22;27609;51.002;5.354;2024-01-27T12:27:56;16.90;83.40
41922;DHT22;27609;51.002;5.354;2024-01-27T12:30:26;16.00;86.20
41922;DHT22;27609;51.002;5.354;2024-01-27T12:32:52;15.70;87.10
41922;DHT22;27609;51.002;5.354;2024-01-27T12:35:18;14.90;88.80
41922;DHT22;27609;51.002;5.354;2024-01-27T12:37:43;15.10;87.60
41922;DHT22;27609;51.002;5.354;2024-01-27T12:40:21;16.20;84.40
41922;DHT22;27609;51.002;5.354;2024-01-27T12:42:47;15.90;84.70
41922;DHT22;27609;51.002;5.354;2024-01-27T12:45:13;16.00;83.40
41922;DHT22;27609;51.002;5.354;2024-01-27T12:47:39;16.40;83.30
41922;DHT22;27609;51.002;5.354;2024-01-27T12:50:05;16.60;83.60
41922;DHT22;27609;51.002;5.354;2024-01-27T12:52:32;17.40;82.00
41922;DHT22;27609;51.002;5.354;2024-01-27T12:54:57;15.80;84.40
41922;DHT22;27609;51.002;5.354;2024-01-27T12:57:23;15.70;85.30
41922;DHT22;27609;51.002;5.354;2024-01-27T12:59:49;14.30;89.10
41922;DHT22;27609;51.002;5.354;2024-01-27T13:02:15;14.40;90.20
41922;DHT22;27609;51.002;5.354;2024-01-27T13:04:41;14.00;90.40
41922;DHT22;27609;51.002;5.354;2024-01-27T13:07:07;14.00;90.60
41922;DHT22;27609;51.002;5.354;2024-01-27T13:09:34;14.70;88.90
41922;DHT22;27609;51.002;5.354;2024-01-27T13:11:59;15.30;88.10
41922;DHT22;27609;51.002;5.354;2024-01-27T13:14:25;15.70;83.70
41922;DHT22;27609;51.002;5.354;2024-01-27T13:16:51;15.60;84.30
41922;DHT22;27609;51.002;5.354;2024-01-27T13:19:19;15.60;83.40
41922;DHT22;27609;51.002;5.354;2024-01-27T13:21:45;15.20;86.20
41922;DHT22;27609;51.002;5.354;2024-01-27T13:24:10;14.80;85.70
41922;DHT22;27609;51.002;5.354;2024-01-27T13:26:36;14.40;87.00
41922;DHT22;27609;51.002;5.354;2024-01-27T13:29:05;14.50;87.30
41922;DHT22;27609;51.002;5.354;2024-01-27T13:31:31;15.30;85.80
41922;DHT22;27609;51.002;5.354;2024-01-27T13:33:57;15.20;85.80
41922;DHT22;27609;51.002;5.354;2024-01-27T13:36:25;15.20;85.80
41922;DHT22;27609;51.002;5.354;2024-01-27T13:38:50;15.10;86.70
41922;DHT22;27609;51.002;5.354;2024-01-27T13:41:18;15.20;84.70
41922;DHT22;27609;51.002;5.354;2024-01-27T13:43:44;16.00;86.70
41922;DHT22;27609;51.002;5.354;2024-01-27T13:46:10;14.20;87.70
41922;DHT22;27609;51.002;5.354;2024-01-27T13:48:36;13.50;90.60
41922;DHT22;27609;51.002;5.354;2024-01-27T13:51:02;12.80;90.70
41922;DHT22;27609;51.002;5.354;2024-01-27T13:53:28;12.30;91.00
41922;DHT22;27609;51.002;5.354;2024-01-27T13:55:54;11.50;92.70
41922;DHT22;27609;51.002;5.354;2024-01-27T13:58:20;11.20;93.90
41922;DHT22;27609;51.002;5.354;2024-01-27T14:00:47;11.50;94.50
41922;DHT22;27609;51.002;5.354;2024-01-27T14:03:13;11.50;93.90
41922;DHT22;27609;51.002;5.354;2024-01-27T14:05:39;11.10;93.20
41922;DHT22;27609;51.002;5.354;2024-01-27T14:08:06;11.10;94.30
41922;DHT22;27609;51.002;5.354;2024-01-27T14:10:33;11.50;94.10
41922;DHT22;27609;51.002;5.354;2024-01-27T14:13:00;11.40;94.60
41922;DHT22;27609;51.002;5.354;2024-01-27T14:15:28;11.50;94.30
41922;DHT22;27609;51.002;5.354;2024-01-27T14:17:54;11.40;94.40
41922;DHT22;27609;51.002;5.354;2024-01-27T14:20:20;11.30;95.00
41922;DHT22;27609;51.002;5.354;2024-01-27T14:22:46;11.50;94.70
41922;DHT22;27609;51.002;5.354;2024-01-27T14:25:12;11.20;95.60
41922;DHT22;27609;51.002;5.354;2024-01-27T14:27:38;11.20;95.50
41922;DHT22;27609;51.002;5.354;2024-01-27T14:30:04;11.10;95.80
41922;DHT22;27609;51.002;5.354;2024-01-27T14:32:30;11.10;95.60
41922;DHT22;27609;51.002;5.354;2024-01-27T14:34:55;11.10;95.30
41922;DHT22;27609;51.002;5.354;2024-01-27T14:37:22;11.10;95.40
41922;DHT22;27609;51.002;5.354;2024-01-27T14:39:48;11.10;95.20
41922;DHT22;27609;51.002;5.354;2024-01-27T14:42:14;11.10;95.60
41922;DHT22;27609;51.002;5.354;2024-01-27T14:44:40;11.10;95.90
41922;DHT22;27609;51.002;5.354;2024-01-27T14:47:08;11.00;96.60
41922;DHT22;27609;51.002;5.354;2024-01-27T14:49:34;10.90;97.20
41922;DHT22;27609;51.002;5.354;2024-01-27T14:52:02;11.00;96.70
41922;DHT22;27609;51.002;5.354;2024-01-27T14:54:27;10.90;97.40
41922;DHT22;27609;51.002;5.354;2024-01-27T14:56:53;10.90;96.80
41922;DHT22;27609;51.002;5.354;2024-01-27T14:59:19;10.90;97.00
41922;DHT22;27609;51.002;5.354;2024-01-27T15:01:45;10.80;97.80
41922;DHT22;27609;51.002;5.354;2024-01-27T15:04:12;10.60;97.80
41922;DHT22;27609;51.002;5.354;2024-01-27T15:06:38;10.70;97.50
41922;DHT22;27609;51.002;5.354;2024-01-27T15:09:04;10.80;97.30
41922;DHT22;27609;51.002;5.354;2024-01-27T15:11:30;10.80;97.40
41922;DHT22;27609;51.002;5.354;2024-01-27T15:13:56;10.80;97.30
41922;DHT22;27609;51.002;5.354;2024-01-27T15:16:22;10.70;96.90
41922;DHT22;27609;51.002;5.354;2024-01-27T15:18:48;10.40;98.80
41922;DHT22;27609;51.002;5.354;2024-01-27T15:21:15;10.20;98.00
41922;DHT22;27609;51.002;5.354;2024-01-27T15:23:42;10.10;98.30
41922;DHT22;27609;51.002;5.354;2024-01-27T15:26:08;9.90;99.40
41922;DHT22;27609;51.002;5.354;2024-01-27T15:28:36;9.90;99.60
41922;DHT22;27609;51.002;5.354;2024-01-27T15:31:01;9.80;99.90
41922;DHT22;27609;51.002;5.354;2024-01-27T15:33:27;9.90;99.90